createdAt,value
2022-10-28T00:00:47.681Z,14.10
2022-10-28T00:03:14.646Z,17.80
2022-10-28T00:05:41.584Z,18.90
2022-10-28T00:08:08.509Z,13.00
2022-10-28T00:10:35.671Z,13.80
2022-10-28T00:13:02.726Z,15.10
2022-10-28T00:15:30.190Z,15.50
2022-10-28T00:17:57.428Z,15.30
2022-10-28T00:20:24.481Z,11.10
2022-10-28T00:22:53.829Z,13.20
2022-10-28T00:25:24.918Z,11.50
2022-10-28T00:27:53.050Z,14.10
2022-10-28T00:30:20.716Z,9.60
2022-10-28T00:32:47.875Z,12.20
2022-10-28T00:35:15.253Z,13.10
2022-10-28T00:37:42.210Z,11.50
2022-10-28T00:40:10.847Z,13.90
2022-10-28T00:42:38.746Z,11.70
2022-10-28T00:45:06.350Z,13.90
2022-10-28T00:47:40.253Z,9.50
2022-10-28T00:50:26.943Z,13.10
2022-10-28T00:52:56.611Z,12.70
2022-10-28T00:55:23.589Z,23.20
2022-10-28T00:57:51.553Z,12.40
2022-10-28T01:00:19.008Z,14.00
2022-10-28T01:02:47.588Z,14.80
2022-10-28T01:05:17.198Z,11.80
2022-10-28T01:07:44.844Z,13.70
2022-10-28T01:10:14.443Z,14.10
2022-10-28T01:13:11.413Z,13.30
2022-10-28T01:15:45.235Z,12.40
2022-10-28T01:18:31.127Z,15.90
2022-10-28T01:21:17.063Z,17.70
2022-10-28T01:23:44.353Z,11.30
2022-10-28T01:26:40.464Z,11.60
2022-10-28T01:29:30.752Z,10.30
2022-10-28T01:34:45.439Z,12.50
2022-10-28T01:37:54.410Z,11.00
2022-10-28T01:40:27.737Z,13.40
2022-10-28T01:43:04.241Z,11.10
2022-10-28T01:45:35.908Z,10.30
2022-10-28T01:48:09.094Z,10.30
2022-10-28T01:50:57.287Z,11.10
2022-10-28T01:53:27.490Z,9.60
2022-10-28T01:55:55.633Z,11.10
2022-10-28T01:58:24.905Z,8.10
2022-10-28T02:00:51.954Z,9.20
2022-10-28T02:03:18.995Z,8.90
2022-10-28T02:05:50.603Z,11.30
2022-10-28T02:08:22.777Z,11.30
2022-10-28T02:11:08.684Z,10.80
2022-10-28T02:13:55.504Z,10.30
2022-10-28T02:16:34.633Z,10.10
2022-10-28T02:19:03.606Z,9.20
2022-10-28T02:21:36.830Z,12.30
2022-10-28T02:24:31.904Z,14.60
2022-10-28T02:27:14.056Z,10.60
2022-10-28T02:29:45.763Z,13.20
2022-10-28T02:32:18.856Z,12.20
2022-10-28T02:34:47.068Z,10.20
2022-10-28T02:37:43.874Z,14.90
2022-10-28T02:40:14.686Z,9.10
2022-10-28T02:42:45.702Z,9.70
2022-10-28T02:45:15.733Z,7.80
2022-10-28T02:47:46.691Z,10.50
2022-10-28T02:50:17.449Z,8.20
2022-10-28T02:52:47.030Z,6.40
2022-10-28T02:55:14.199Z,6.40
2022-10-28T02:57:42.835Z,7.10
2022-10-28T03:00:12.092Z,6.80
2022-10-28T03:02:39.052Z,6.60
2022-10-28T03:05:06.404Z,8.40
2022-10-28T03:07:34.055Z,7.80
2022-10-28T03:10:01.182Z,6.20
2022-10-28T03:12:28.352Z,8.60
2022-10-28T03:14:58.323Z,8.30
2022-10-28T03:17:25.310Z,8.00
2022-10-28T03:19:53.813Z,7.90
2022-10-28T03:22:20.992Z,11.90
2022-10-28T03:24:47.946Z,12.60
2022-10-28T03:27:14.804Z,8.90
2022-10-28T03:29:45.883Z,9.80
2022-10-28T03:32:13.803Z,15.40
2022-10-28T03:34:41.964Z,14.50
2022-10-28T03:37:09.081Z,16.80
2022-10-28T03:39:36.083Z,13.40
2022-10-28T03:42:03.651Z,19.30
2022-10-28T03:44:30.809Z,7.80
2022-10-28T03:46:58.477Z,9.40
2022-10-28T03:49:26.054Z,10.20
2022-10-28T03:51:52.970Z,10.30
2022-10-28T03:54:19.974Z,7.30
2022-10-28T03:56:46.980Z,9.40
2022-10-28T03:59:16.382Z,8.60
2022-10-28T04:01:46.781Z,6.40
2022-10-28T04:04:13.816Z,5.50
2022-10-28T04:06:41.209Z,8.20
2022-10-28T04:09:08.409Z,9.00
2022-10-28T04:11:35.550Z,7.40
2022-10-28T04:14:02.965Z,7.10
2022-10-28T04:16:30.201Z,11.70
2022-10-28T04:19:03.807Z,9.80
2022-10-28T04:21:30.857Z,20.90
2022-10-28T04:23:57.838Z,14.70
2022-10-28T04:26:25.254Z,14.90
2022-10-28T04:28:52.299Z,15.90
2022-10-28T04:31:19.414Z,19.90
2022-10-28T04:33:46.501Z,13.60
2022-10-28T04:36:13.955Z,24.20
2022-10-28T04:38:40.940Z,18.90
2022-10-28T04:41:12.774Z,16.90
2022-10-28T04:43:40.705Z,23.70
2022-10-28T04:46:07.868Z,16.10
2022-10-28T04:48:35.067Z,21.50
2022-10-28T04:51:02.127Z,16.60
2022-10-28T04:53:29.182Z,14.80
2022-10-28T04:55:59.559Z,19.80
2022-10-28T04:58:27.754Z,17.40
2022-10-28T05:00:54.659Z,14.40
2022-10-28T05:03:21.728Z,14.40
2022-10-28T05:05:48.900Z,22.00
2022-10-28T05:08:16.128Z,17.60
2022-10-28T05:10:49.002Z,11.50
2022-10-28T05:13:17.373Z,14.70
2022-10-28T05:15:44.625Z,12.20
2022-10-28T05:18:12.103Z,16.00
2022-10-28T05:20:39.242Z,16.10
2022-10-28T05:23:07.876Z,26.10
2022-10-28T05:25:35.489Z,20.00
2022-10-28T05:28:02.507Z,25.10
2022-10-28T05:30:29.723Z,17.70
2022-10-28T05:33:03.310Z,17.30
2022-10-28T05:35:33.315Z,20.20
2022-10-28T05:38:00.414Z,20.70
2022-10-28T05:40:27.692Z,23.80
2022-10-28T05:42:54.953Z,15.50
2022-10-28T05:47:53.254Z,11.90
2022-10-28T05:50:20.715Z,14.50
2022-10-28T05:52:55.562Z,15.90
2022-10-28T05:55:24.047Z,15.10
2022-10-28T05:57:52.495Z,19.60
2022-10-28T06:00:21.331Z,24.10
2022-10-28T06:02:48.350Z,20.60
2022-10-28T06:05:17.077Z,11.20
2022-10-28T06:07:45.317Z,16.30
2022-10-28T06:10:12.435Z,16.00
2022-10-28T06:12:38.524Z,22.50
2022-10-28T06:15:06.270Z,22.90
2022-10-28T06:17:35.031Z,15.70
2022-10-28T06:20:02.415Z,31.00
2022-10-28T06:22:29.724Z,16.20
2022-10-28T06:24:56.909Z,29.50
2022-10-28T06:27:23.998Z,28.00
2022-10-28T06:29:51.263Z,19.40
2022-10-28T06:32:19.013Z,28.00
2022-10-28T06:34:46.038Z,21.30
2022-10-28T06:37:13.297Z,19.40
2022-10-28T06:39:43.094Z,21.90
2022-10-28T06:42:10.380Z,19.30
2022-10-28T06:44:37.827Z,26.60
2022-10-28T06:47:06.402Z,20.00
2022-10-28T06:49:33.913Z,46.00
2022-10-28T06:52:01.128Z,39.50
2022-10-28T06:54:28.141Z,22.80
2022-10-28T06:56:55.252Z,206.50
2022-10-28T06:59:22.298Z,16.60
2022-10-28T07:01:49.533Z,60.40
2022-10-28T07:04:16.629Z,45.50
2022-10-28T07:06:45.443Z,27.90
2022-10-28T07:09:15.489Z,106.20
2022-10-28T07:11:45.729Z,91.00
2022-10-28T07:14:13.317Z,47.70
2022-10-28T07:16:42.277Z,50.70
2022-10-28T07:19:10.137Z,44.50
2022-10-28T07:21:37.400Z,31.50
2022-10-28T07:24:04.813Z,40.30
2022-10-28T07:26:32.216Z,29.30
2022-10-28T07:28:59.263Z,31.20
2022-10-28T07:31:27.835Z,34.10
2022-10-28T07:33:54.843Z,22.50
2022-10-28T07:36:22.797Z,17.70
2022-10-28T07:38:51.929Z,25.10
2022-10-28T07:41:20.021Z,16.00
2022-10-28T07:43:47.071Z,18.90
2022-10-28T07:46:18.486Z,20.80
2022-10-28T07:48:46.180Z,18.30
2022-10-28T07:51:14.353Z,29.00
2022-10-28T07:53:43.899Z,26.40
2022-10-28T07:56:13.678Z,25.10
2022-10-28T07:58:42.176Z,17.40
2022-10-28T08:01:10.076Z,22.40
2022-10-28T08:03:39.031Z,23.50
2022-10-28T08:06:11.306Z,35.80
2022-10-28T08:08:38.448Z,30.10
2022-10-28T08:11:14.208Z,31.80
2022-10-28T08:13:41.184Z,30.50
2022-10-28T08:16:08.517Z,25.60
2022-10-28T08:18:36.975Z,27.80
2022-10-28T08:21:07.306Z,25.80
2022-10-28T08:23:34.508Z,22.10
2022-10-28T08:26:02.294Z,25.20
2022-10-28T08:28:29.650Z,25.60
2022-10-28T08:31:09.205Z,23.50
2022-10-28T08:33:38.747Z,27.00
2022-10-28T08:36:07.183Z,28.80
2022-10-28T08:38:34.249Z,25.00
2022-10-28T08:41:18.536Z,34.60
2022-10-28T08:44:04.698Z,27.70
2022-10-28T08:46:45.107Z,29.30
2022-10-28T08:49:13.880Z,28.40
2022-10-28T08:51:42.583Z,31.80
2022-10-28T08:54:41.950Z,29.80
2022-10-28T08:57:17.803Z,26.30
2022-10-28T08:59:45.813Z,22.00
2022-10-28T09:02:22.182Z,19.40
2022-10-28T09:05:02.650Z,23.00
2022-10-28T09:07:29.856Z,20.10
2022-10-28T09:09:56.873Z,23.10
2022-10-28T09:12:46.261Z,21.40
2022-10-28T09:15:29.033Z,19.40
2022-10-28T09:18:10.432Z,26.10
2022-10-28T09:20:54.653Z,30.60
2022-10-28T09:23:28.865Z,24.20
2022-10-28T09:26:41.033Z,24.70
2022-10-28T09:29:20.137Z,22.40
2022-10-28T09:31:56.003Z,23.60
2022-10-28T09:34:47.324Z,22.70
2022-10-28T09:37:18.498Z,23.50
2022-10-28T09:39:48.494Z,25.30
2022-10-28T09:42:27.846Z,25.90
2022-10-28T09:45:01.931Z,24.00
2022-10-28T09:47:37.714Z,18.30
2022-10-28T09:50:08.494Z,18.60
2022-10-28T09:52:43.365Z,24.50
2022-10-28T09:55:19.006Z,20.00
2022-10-28T09:57:46.161Z,26.10
2022-10-28T10:00:14.152Z,21.60
2022-10-28T10:02:42.853Z,19.60
2022-10-28T10:05:17.008Z,15.40
2022-10-28T10:07:53.972Z,21.50
2022-10-28T10:10:24.847Z,14.30
2022-10-28T10:12:52.876Z,13.60
2022-10-28T10:15:33.302Z,13.60
2022-10-28T10:18:01.014Z,16.30
2022-10-28T10:20:28.283Z,15.90
2022-10-28T10:22:56.515Z,18.30
2022-10-28T10:25:30.439Z,18.10
2022-10-28T10:27:57.917Z,11.90
2022-10-28T10:30:29.957Z,11.40
2022-10-28T10:32:57.463Z,9.10
2022-10-28T10:35:26.687Z,8.40
2022-10-28T10:37:55.615Z,9.30
2022-10-28T10:40:32.628Z,13.00
2022-10-28T10:43:18.092Z,9.10
2022-10-28T10:45:51.805Z,9.90
2022-10-28T10:48:19.039Z,11.50
2022-10-28T10:50:47.317Z,12.90
2022-10-28T10:53:18.781Z,8.20
2022-10-28T10:55:50.035Z,16.00
2022-10-28T10:58:21.169Z,8.40
2022-10-28T11:00:49.775Z,10.60
2022-10-28T11:03:25.895Z,8.50
2022-10-28T11:06:18.208Z,14.30
2022-10-28T11:08:44.366Z,34.40
2022-10-28T11:11:19.205Z,13.00
2022-10-28T11:13:48.517Z,12.00
2022-10-28T11:16:23.364Z,6.00
2022-10-28T11:18:52.116Z,4.30
2022-10-28T11:22:04.407Z,4.10
2022-10-28T11:24:55.602Z,4.10
2022-10-28T11:30:00.928Z,5.50
2022-10-28T11:32:40.250Z,2.90
2022-10-28T11:35:16.007Z,3.40
2022-10-28T11:38:08.748Z,3.20
2022-10-28T11:41:00.891Z,3.20
2022-10-28T11:43:36.568Z,5.70
2022-10-28T11:46:26.748Z,7.10
2022-10-28T11:49:12.135Z,4.90
2022-10-28T11:51:57.659Z,4.20
2022-10-28T11:54:45.098Z,5.40
2022-10-28T11:57:16.376Z,9.50
2022-10-28T12:00:29.559Z,3.20
2022-10-28T12:03:25.903Z,2.90
2022-10-28T12:06:05.087Z,4.00
2022-10-28T12:08:50.983Z,8.90
2022-10-28T12:11:46.894Z,5.50
2022-10-28T12:14:34.495Z,6.10
2022-10-28T12:17:14.821Z,4.00
2022-10-28T12:20:10.436Z,6.60
2022-10-28T12:22:58.795Z,6.50
2022-10-28T12:25:31.415Z,4.20
2022-10-28T12:28:21.019Z,4.40
2022-10-28T12:30:49.316Z,3.90
2022-10-28T12:33:28.973Z,3.10
2022-10-28T12:36:13.388Z,5.80
2022-10-28T12:39:12.400Z,8.30
2022-10-28T12:41:45.068Z,12.70
2022-10-28T12:44:14.924Z,10.80
2022-10-28T12:47:03.296Z,6.40
2022-10-28T12:49:45.779Z,10.60
2022-10-28T12:52:18.840Z,8.80
2022-10-28T12:54:57.120Z,7.60
2022-10-28T12:57:24.279Z,10.40
2022-10-28T13:00:25.939Z,6.30
2022-10-28T13:03:01.821Z,7.70
2022-10-28T13:05:37.473Z,5.00
2022-10-28T13:12:03.216Z,13.00
2022-10-28T13:15:15.597Z,6.40
2022-10-28T13:18:09.979Z,6.40
2022-10-28T13:21:14.963Z,9.20
2022-10-28T13:23:44.162Z,13.90
2022-10-28T13:26:26.463Z,8.20
2022-10-28T13:28:58.295Z,5.50
2022-10-28T13:31:45.217Z,5.30
2022-10-28T13:34:13.934Z,8.10
2022-10-28T13:36:45.569Z,6.10
2022-10-28T13:39:43.543Z,4.90
2022-10-28T13:42:13.487Z,8.50
2022-10-28T13:44:50.797Z,9.30
2022-10-28T13:47:17.760Z,12.90
2022-10-28T13:50:08.621Z,10.70
2022-10-28T13:52:42.274Z,9.80
2022-10-28T13:55:21.915Z,16.60
2022-10-28T13:57:51.429Z,14.40
2022-10-28T14:00:18.521Z,31.80
2022-10-28T14:03:01.560Z,30.40
2022-10-28T14:05:32.462Z,26.60
2022-10-28T14:08:22.458Z,37.80
2022-10-28T14:11:00.475Z,28.80
2022-10-28T14:13:27.402Z,25.90
2022-10-28T14:16:26.571Z,28.60
2022-10-28T14:19:03.454Z,60.40
2022-10-28T14:21:59.174Z,34.70
2022-10-28T14:24:33.297Z,56.40
2022-10-28T14:27:10.026Z,58.50
2022-10-28T14:29:49.239Z,47.90
2022-10-28T14:32:31.691Z,41.40
2022-10-28T14:35:11.010Z,46.80
2022-10-28T14:38:02.561Z,43.00
2022-10-28T14:40:36.220Z,39.80
2022-10-28T14:43:15.914Z,54.50
2022-10-28T14:45:52.430Z,110.80
2022-10-28T14:48:46.264Z,60.00
2022-10-28T14:51:18.346Z,72.50
2022-10-28T14:53:45.555Z,84.40
2022-10-28T14:58:50.248Z,152.30
2022-10-28T15:01:17.368Z,110.20
2022-10-28T15:03:46.939Z,105.10
2022-10-28T15:06:37.468Z,87.20
2022-10-28T15:09:22.311Z,88.90
2022-10-28T15:11:52.654Z,78.50
2022-10-28T15:14:29.595Z,89.00
2022-10-28T15:16:58.364Z,101.10
2022-10-28T15:19:27.432Z,97.50
2022-10-28T15:22:04.426Z,194.10
2022-10-28T15:24:31.568Z,156.10
2022-10-28T15:26:58.585Z,141.10
2022-10-28T15:29:25.699Z,208.80
2022-10-28T15:32:13.881Z,221.00
2022-10-28T15:34:41.320Z,218.00
2022-10-28T15:37:08.327Z,253.60
2022-10-28T15:39:35.823Z,210.10
2022-10-28T15:42:02.911Z,227.30
2022-10-28T15:44:49.697Z,231.80
2022-10-28T15:47:32.803Z,231.80
2022-10-28T15:50:17.360Z,147.20
2022-10-28T15:52:48.363Z,192.00
2022-10-28T15:57:48.032Z,264.40
2022-10-28T16:00:20.722Z,286.20
2022-10-28T16:02:55.845Z,284.70
2022-10-28T16:05:32.609Z,272.40
2022-10-28T16:08:00.976Z,304.60
2022-10-28T16:10:28.748Z,307.70
2022-10-28T16:12:55.656Z,313.70
2022-10-28T16:15:22.647Z,279.50
2022-10-28T16:17:50.386Z,320.90
2022-10-28T16:20:21.974Z,278.10
2022-10-28T16:22:49.133Z,293.70
2022-10-28T16:25:20.716Z,312.90
2022-10-28T16:30:18.609Z,294.70
2022-10-28T16:32:47.544Z,247.30
2022-10-28T16:35:16.430Z,242.20
2022-10-28T16:37:46.519Z,229.50
2022-10-28T16:40:37.538Z,128.50
2022-10-28T16:43:04.209Z,188.80
2022-10-28T16:45:31.506Z,212.10
2022-10-28T16:48:01.322Z,197.80
2022-10-28T16:50:28.299Z,157.60
2022-10-28T16:52:56.629Z,179.00
2022-10-28T16:55:23.994Z,192.60
2022-10-28T16:57:50.985Z,184.40
2022-10-28T17:00:18.588Z,191.50
2022-10-28T17:02:50.722Z,189.50
2022-10-28T17:05:22.471Z,198.50
2022-10-28T17:07:50.111Z,172.40
2022-10-28T17:10:17.445Z,171.60
2022-10-28T17:12:44.737Z,188.80
2022-10-28T17:15:17.938Z,143.60
2022-10-28T17:17:49.396Z,148.90
2022-10-28T17:20:16.704Z,146.30
2022-10-28T17:22:44.420Z,126.20
2022-10-28T17:25:11.388Z,145.50
2022-10-28T17:27:39.259Z,160.30
2022-10-28T17:30:07.277Z,144.30
2022-10-28T17:32:35.336Z,141.30
2022-10-28T17:35:02.571Z,136.00
2022-10-28T17:37:30.479Z,146.10
2022-10-28T17:39:57.448Z,146.20
2022-10-28T17:42:24.894Z,133.40
2022-10-28T17:44:52.290Z,134.50
2022-10-28T17:47:22.284Z,130.50
2022-10-28T17:49:49.476Z,129.00
2022-10-28T17:52:17.121Z,134.20
2022-10-28T17:54:45.328Z,142.40
2022-10-28T17:57:12.458Z,147.30
2022-10-28T17:59:40.428Z,144.50
2022-10-28T18:02:07.525Z,117.60
2022-10-28T18:04:36.409Z,120.30
2022-10-28T18:07:03.617Z,123.70
2022-10-28T18:09:32.360Z,129.40
2022-10-28T18:12:02.064Z,113.20
2022-10-28T18:14:29.689Z,102.50
2022-10-28T18:16:56.928Z,108.20
2022-10-28T18:19:25.441Z,94.40
2022-10-28T18:21:53.077Z,93.50
2022-10-28T18:24:23.349Z,73.70
2022-10-28T18:26:54.059Z,70.70
2022-10-28T18:29:21.018Z,114.40
2022-10-28T18:31:48.201Z,128.90
2022-10-28T18:34:16.574Z,79.50
2022-10-28T18:36:45.957Z,62.70
2022-10-28T18:39:13.138Z,59.50
2022-10-28T18:41:42.815Z,54.40
2022-10-28T18:44:14.634Z,54.10
2022-10-28T18:46:42.527Z,57.60
2022-10-28T18:49:09.475Z,55.10
2022-10-28T18:51:36.861Z,55.50
2022-10-28T18:54:04.489Z,62.50
2022-10-28T18:56:31.540Z,52.40
2022-10-28T18:58:58.927Z,57.30
2022-10-28T19:01:27.626Z,50.00
2022-10-28T19:03:59.347Z,42.80
2022-10-28T19:06:29.919Z,49.80
2022-10-28T19:08:59.583Z,47.10
2022-10-28T19:11:31.274Z,50.50
2022-10-28T19:13:59.374Z,49.20
2022-10-28T19:16:27.898Z,55.20
2022-10-28T19:18:57.194Z,54.30
2022-10-28T19:21:24.848Z,46.60
2022-10-28T19:23:52.383Z,41.60
2022-10-28T19:26:19.825Z,45.10
2022-10-28T19:28:48.374Z,40.50
2022-10-28T19:31:17.342Z,42.20
2022-10-28T19:33:45.456Z,39.60
2022-10-28T19:36:25.321Z,47.50
2022-10-28T19:41:29.801Z,35.50
2022-10-28T19:43:59.159Z,38.50
2022-10-28T19:46:30.397Z,49.20
2022-10-28T19:48:58.647Z,47.50
2022-10-28T19:51:33.587Z,50.60
2022-10-28T19:54:02.271Z,51.90
2022-10-28T19:56:30.304Z,54.10
2022-10-28T19:58:58.509Z,44.80
2022-10-28T20:01:27.746Z,47.70
2022-10-28T20:03:55.123Z,48.00
2022-10-28T20:06:23.984Z,47.20
2022-10-28T20:08:52.088Z,50.90
2022-10-28T20:11:25.766Z,43.10
2022-10-28T20:14:01.782Z,49.30
2022-10-28T20:16:29.062Z,48.20
2022-10-28T20:18:57.467Z,38.60
2022-10-28T20:21:29.558Z,42.50
2022-10-28T20:23:57.192Z,39.50
2022-10-28T20:28:55.222Z,52.40
2022-10-28T20:33:52.784Z,48.10
2022-10-28T20:36:33.015Z,48.90
2022-10-28T20:39:23.290Z,38.20
2022-10-28T20:44:18.484Z,40.70
2022-10-28T20:46:48.209Z,40.30
2022-10-28T20:49:15.634Z,42.50
2022-10-28T20:51:42.757Z,38.80
2022-10-28T20:54:09.817Z,35.00
2022-10-28T20:56:37.880Z,34.60
2022-10-28T20:59:05.122Z,32.80
2022-10-28T21:01:35.103Z,34.70
2022-10-28T21:04:05.354Z,31.40
2022-10-28T21:06:33.363Z,33.40
2022-10-28T21:09:00.432Z,29.60
2022-10-28T21:11:28.265Z,29.40
2022-10-28T21:13:59.355Z,26.10
2022-10-28T21:16:28.442Z,28.00
2022-10-28T21:18:55.598Z,31.20
2022-10-28T21:21:24.175Z,33.00
2022-10-28T21:23:52.744Z,38.20
2022-10-28T21:26:19.748Z,43.90
2022-10-28T21:28:51.895Z,42.10
2022-10-28T21:31:19.598Z,37.40
2022-10-28T21:36:22.226Z,38.90
2022-10-28T21:38:53.000Z,35.30
2022-10-28T21:43:49.290Z,35.60
2022-10-28T21:46:17.223Z,37.20
2022-10-28T21:48:45.541Z,32.90
2022-10-28T21:51:15.002Z,35.90
2022-10-28T21:56:18.300Z,33.20
2022-10-28T21:58:49.205Z,39.10
2022-10-28T22:01:21.889Z,32.70
2022-10-28T22:03:49.687Z,32.20
2022-10-28T22:06:16.718Z,24.30
2022-10-28T22:08:43.735Z,23.80
2022-10-28T22:11:15.643Z,26.90
2022-10-28T22:13:42.761Z,25.60
2022-10-28T22:16:18.938Z,24.80
2022-10-28T22:18:46.633Z,23.50
2022-10-28T22:21:25.637Z,26.90
2022-10-28T22:23:52.921Z,20.20
2022-10-28T22:26:24.689Z,21.80
2022-10-28T22:28:53.114Z,22.90
2022-10-28T22:31:25.365Z,25.40
2022-10-28T22:33:52.926Z,21.30
2022-10-28T22:36:22.212Z,23.00
2022-10-28T22:38:49.412Z,22.80
2022-10-28T22:41:18.022Z,22.90
2022-10-28T22:43:58.424Z,19.00
2022-10-28T22:46:27.768Z,21.50
2022-10-28T22:48:54.787Z,28.40
2022-10-28T22:51:21.937Z,29.60
2022-10-28T22:53:51.219Z,26.10
2022-10-28T22:56:20.749Z,27.60
2022-10-28T22:58:48.856Z,23.80
2022-10-28T23:01:17.246Z,25.10
2022-10-28T23:03:46.321Z,29.00
2022-10-28T23:06:14.909Z,28.90
2022-10-28T23:08:42.440Z,29.70
2022-10-28T23:11:13.424Z,29.80
2022-10-28T23:13:41.790Z,27.00
2022-10-28T23:16:13.983Z,25.70
2022-10-28T23:18:41.166Z,28.30
2022-10-28T23:21:21.500Z,33.30
2022-10-28T23:23:55.476Z,27.40
2022-10-28T23:26:22.554Z,24.00
2022-10-28T23:28:51.131Z,24.10
2022-10-28T23:31:18.927Z,20.60
2022-10-28T23:33:46.135Z,20.40
2022-10-28T23:36:13.892Z,17.20
2022-10-28T23:38:41.097Z,16.90
2022-10-28T23:41:10.152Z,19.90
2022-10-28T23:43:37.948Z,20.90
2022-10-28T23:46:05.766Z,17.90
2022-10-28T23:48:32.911Z,20.80
2022-10-28T23:50:59.888Z,19.50
2022-10-28T23:55:58.929Z,18.10
2022-10-28T23:58:26.134Z,23.00
